createdAt,value
2023-11-16T00:03:13.619Z,6.50
2023-11-16T00:08:17.862Z,6.60
2023-11-16T00:13:21.645Z,6.70
2023-11-16T00:18:28.986Z,6.70
2023-11-16T00:23:33.575Z,6.80
2023-11-16T00:28:41.317Z,7.00
2023-11-16T00:33:48.164Z,6.90
2023-11-16T00:38:52.964Z,6.90
2023-11-16T00:43:58.382Z,7.00
2023-11-16T00:49:04.128Z,7.00
2023-11-16T00:54:08.638Z,7.20
2023-11-16T00:59:12.377Z,7.30
2023-11-16T01:04:20.798Z,7.30
2023-11-16T01:09:25.965Z,7.40
2023-11-16T01:14:34.002Z,7.30
2023-11-16T01:19:45.278Z,7.30
2023-11-16T01:24:49.842Z,7.40
2023-11-16T01:29:54.997Z,7.30
2023-11-16T01:35:04.871Z,7.40
2023-11-16T01:40:09.582Z,7.40
2023-11-16T01:45:34.027Z,7.40
2023-11-16T01:50:43.683Z,7.50
2023-11-16T01:55:50.583Z,7.50
2023-11-16T02:00:55.954Z,7.40
2023-11-16T02:06:00.907Z,7.40
2023-11-16T02:11:05.305Z,7.40
2023-11-16T02:16:09.466Z,7.40
2023-11-16T02:21:15.318Z,7.30
2023-11-16T02:26:25.367Z,7.40
2023-11-16T02:31:38.062Z,7.30
2023-11-16T02:36:43.183Z,7.50
2023-11-16T02:41:48.979Z,7.50
2023-11-16T02:46:53.092Z,7.50
2023-11-16T02:51:57.080Z,7.50
2023-11-16T02:57:07.413Z,7.70
2023-11-16T03:02:13.567Z,7.60
2023-11-16T03:07:27.034Z,7.60
2023-11-16T03:12:38.218Z,7.50
2023-11-16T03:17:47.018Z,7.60
2023-11-16T03:22:52.102Z,7.60
2023-11-16T03:27:57.763Z,7.60
2023-11-16T03:33:03.507Z,7.50
2023-11-16T03:38:08.372Z,7.60
2023-11-16T03:43:13.788Z,7.50
2023-11-16T03:48:19.972Z,7.40
2023-11-16T03:53:24.100Z,7.50
2023-11-16T03:58:28.852Z,7.70
2023-11-16T04:03:33.158Z,7.60
2023-11-16T04:08:39.459Z,7.70
2023-11-16T04:13:45.666Z,7.80
2023-11-16T04:18:50.628Z,7.60
2023-11-16T04:23:57.905Z,7.50
2023-11-16T04:29:02.798Z,7.50
2023-11-16T04:34:07.105Z,7.50
2023-11-16T04:39:13.665Z,7.40
2023-11-16T04:44:21.121Z,7.40
2023-11-16T04:49:25.650Z,7.10
2023-11-16T04:54:29.299Z,6.90
2023-11-16T04:59:34.433Z,7.00
2023-11-16T05:04:43.350Z,7.20
2023-11-16T05:09:47.778Z,7.30
2023-11-16T05:15:00.897Z,7.50
2023-11-16T05:20:08.659Z,7.40
2023-11-16T05:25:13.388Z,7.40
2023-11-16T05:30:25.176Z,7.30
2023-11-16T05:35:30.527Z,7.40
2023-11-16T05:40:34.782Z,7.50
2023-11-16T05:45:41.513Z,7.50
2023-11-16T05:50:46.899Z,7.30
2023-11-16T05:55:53.829Z,7.50
2023-11-16T06:00:59.750Z,7.40
2023-11-16T06:06:07.419Z,7.60
2023-11-16T06:11:15.395Z,7.60
2023-11-16T06:16:20.995Z,7.50
2023-11-16T06:21:26.034Z,7.50
2023-11-16T06:26:32.633Z,7.50
2023-11-16T06:31:39.119Z,7.50
2023-11-16T06:36:43.962Z,7.50
2023-11-16T06:41:47.850Z,7.60
2023-11-16T06:46:56.101Z,7.70
2023-11-16T06:52:02.567Z,7.60
2023-11-16T06:57:06.953Z,7.70
2023-11-16T07:02:15.246Z,7.70
2023-11-16T07:07:20.538Z,7.70
2023-11-16T07:12:24.497Z,7.80
2023-11-16T07:17:30.730Z,7.80
2023-11-16T07:22:34.375Z,7.90
2023-11-16T07:27:42.804Z,8.00
2023-11-16T07:32:49.530Z,8.00
2023-11-16T07:37:54.391Z,8.00
2023-11-16T07:42:58.868Z,8.00
2023-11-16T07:48:05.925Z,8.00
2023-11-16T07:53:14.331Z,8.00
2023-11-16T07:58:18.960Z,8.00
2023-11-16T08:03:43.368Z,8.10
2023-11-16T08:08:47.997Z,8.10
2023-11-16T08:13:53.544Z,8.10
2023-11-16T08:19:00.990Z,8.10
2023-11-16T08:24:07.605Z,8.20
2023-11-16T08:29:11.388Z,8.30
2023-11-16T08:34:17.062Z,8.20
2023-11-16T08:39:22.920Z,8.10
2023-11-16T08:44:27.263Z,8.40
2023-11-16T08:49:37.160Z,8.60
2023-11-16T08:54:42.340Z,8.80
2023-11-16T09:00:03.124Z,8.70
2023-11-16T09:05:12.105Z,8.60
2023-11-16T09:10:17.081Z,8.30
2023-11-16T09:15:27.497Z,8.20
2023-11-16T09:20:35.171Z,8.20
2023-11-16T09:25:40.084Z,8.50
2023-11-16T09:30:45.105Z,9.40
2023-11-16T09:35:53.213Z,10.20
2023-11-16T09:41:06.362Z,9.80
2023-11-16T09:46:13.739Z,9.70
2023-11-16T09:51:20.668Z,9.70
2023-11-16T09:56:36.270Z,9.50
2023-11-16T10:01:57.486Z,9.70
2023-11-16T10:07:06.634Z,10.00
2023-11-16T10:12:15.284Z,10.20
2023-11-16T10:17:26.954Z,9.80
2023-11-16T10:22:35.965Z,9.70
2023-11-16T10:27:43.749Z,9.60
2023-11-16T10:32:48.818Z,10.00
2023-11-16T10:37:56.677Z,10.10
2023-11-16T10:43:05.620Z,9.90
2023-11-16T10:48:10.827Z,9.80
2023-11-16T10:53:18.872Z,9.40
2023-11-16T10:58:31.276Z,9.30
2023-11-16T11:03:37.295Z,9.30
2023-11-16T11:08:44.784Z,9.30
2023-11-16T11:13:54.777Z,9.30
2023-11-16T11:19:00.381Z,9.20
2023-11-16T11:24:09.719Z,9.30
2023-11-16T11:29:14.183Z,9.30
2023-11-16T11:34:18.141Z,9.40
2023-11-16T11:39:27.984Z,9.30
2023-11-16T11:44:31.950Z,9.40
2023-11-16T11:49:35.962Z,9.40
2023-11-16T11:54:43.079Z,9.40
2023-11-16T11:59:47.226Z,9.80
2023-11-16T12:04:51.135Z,10.00
2023-11-16T12:09:57.034Z,9.80
2023-11-16T12:15:01.465Z,9.40
2023-11-16T12:20:06.267Z,9.30
2023-11-16T12:25:13.754Z,9.10
2023-11-16T12:30:21.607Z,8.80
2023-11-16T12:35:26.158Z,8.80
2023-11-16T12:40:31.254Z,8.70
2023-11-16T12:45:35.591Z,8.90
2023-11-16T12:50:41.065Z,9.10
2023-11-16T12:55:48.086Z,9.20
2023-11-16T13:00:52.609Z,9.10
2023-11-16T13:05:57.378Z,9.10
2023-11-16T13:11:02.897Z,9.10
2023-11-16T13:16:07.990Z,8.90
2023-11-16T13:21:12.061Z,8.90
2023-11-16T13:26:17.289Z,8.90
2023-11-16T13:31:21.070Z,8.90
2023-11-16T13:36:24.872Z,8.80
2023-11-16T13:41:30.014Z,9.00
2023-11-16T13:46:33.797Z,8.90
2023-11-16T13:51:38.427Z,8.50
2023-11-16T13:56:49.957Z,8.40
2023-11-16T14:01:53.908Z,8.10
2023-11-16T14:06:58.725Z,7.80
2023-11-16T14:12:05.212Z,7.60
2023-11-16T14:17:09.725Z,7.60
2023-11-16T14:22:13.909Z,7.50
2023-11-16T14:27:19.464Z,7.30
2023-11-16T14:32:29.155Z,7.20
2023-11-16T14:37:32.858Z,6.90
2023-11-16T14:42:38.042Z,6.70
2023-11-16T14:47:42.361Z,6.70
2023-11-16T14:52:53.016Z,6.50
2023-11-16T14:58:02.954Z,6.10
2023-11-16T15:03:06.520Z,5.70
2023-11-16T15:08:10.475Z,5.50
2023-11-16T15:13:15.458Z,5.20
2023-11-16T15:18:19.557Z,5.00
2023-11-16T15:23:23.425Z,5.00
2023-11-16T15:28:28.390Z,5.00
2023-11-16T15:33:32.072Z,4.80
2023-11-16T15:38:36.408Z,4.70
2023-11-16T15:43:41.618Z,4.60
2023-11-16T15:48:45.218Z,4.20
2023-11-16T15:53:49.523Z,3.90
2023-11-16T15:58:56.603Z,3.80
2023-11-16T16:04:02.320Z,3.70
2023-11-16T16:09:06.625Z,3.60
2023-11-16T16:14:11.727Z,3.50
2023-11-16T16:19:15.630Z,3.30
2023-11-16T16:24:19.597Z,3.30
2023-11-16T16:29:31.657Z,3.20
2023-11-16T16:34:35.395Z,3.10
2023-11-16T16:39:40.587Z,2.90
2023-11-16T16:44:45.394Z,2.80
2023-11-16T16:49:53.101Z,2.80
2023-11-16T16:54:56.830Z,2.80
2023-11-16T17:00:29.851Z,2.60
2023-11-16T17:05:35.165Z,2.70
2023-11-16T17:10:38.698Z,2.70
2023-11-16T17:15:45.032Z,2.80
2023-11-16T17:20:57.851Z,2.70
2023-11-16T17:26:02.276Z,2.60
2023-11-16T17:31:08.226Z,2.80
2023-11-16T17:36:12.446Z,3.10
2023-11-16T17:41:17.779Z,3.10
2023-11-16T17:46:23.775Z,3.00
2023-11-16T17:51:28.852Z,3.20
2023-11-16T17:56:32.686Z,3.50
2023-11-16T18:01:38.888Z,3.60
2023-11-16T18:06:42.436Z,3.80
2023-11-16T18:11:47.508Z,4.00
2023-11-16T18:16:52.559Z,4.20
2023-11-16T18:21:57.555Z,4.30
2023-11-16T18:27:02.015Z,4.40
2023-11-16T18:32:09.294Z,4.70
2023-11-16T18:37:13.851Z,4.90
2023-11-16T18:42:17.851Z,4.90
2023-11-16T18:47:23.272Z,4.90
2023-11-16T18:52:27.046Z,5.00
2023-11-16T18:57:34.069Z,5.10
2023-11-16T19:02:40.404Z,5.20
2023-11-16T19:07:44.179Z,5.30
2023-11-16T19:12:49.040Z,5.20
2023-11-16T19:17:54.219Z,5.10
2023-11-16T19:23:02.613Z,5.20
2023-11-16T19:28:07.895Z,5.00
2023-11-16T19:33:16.170Z,4.80
2023-11-16T19:38:25.485Z,4.60
2023-11-16T19:43:29.086Z,4.30
2023-11-16T19:48:38.154Z,4.00
2023-11-16T19:53:42.885Z,3.90
2023-11-16T19:58:46.923Z,3.90
2023-11-16T20:03:53.011Z,3.70
2023-11-16T20:09:24.389Z,3.30
2023-11-16T20:14:30.978Z,3.10
2023-11-16T20:19:37.977Z,2.90
2023-11-16T20:24:41.607Z,2.70
2023-11-16T20:29:47.140Z,2.50
2023-11-16T20:34:52.423Z,2.50
2023-11-16T20:39:56.357Z,2.30
2023-11-16T20:45:01.180Z,2.20
2023-11-16T20:50:08.418Z,2.20
2023-11-16T20:55:12.590Z,2.00
2023-11-16T21:00:21.315Z,1.90
2023-11-16T21:05:26.409Z,2.00
2023-11-16T21:10:30.617Z,1.90
2023-11-16T21:15:34.427Z,2.00
2023-11-16T21:20:42.898Z,2.00
2023-11-16T21:25:47.056Z,2.10
2023-11-16T21:30:50.861Z,1.90
2023-11-16T21:35:56.504Z,1.90
2023-11-16T21:41:02.696Z,1.80
2023-11-16T21:46:07.698Z,1.60
2023-11-16T21:51:13.183Z,1.80
2023-11-16T21:56:16.772Z,1.60
2023-11-16T22:01:20.718Z,1.50
2023-11-16T22:06:26.223Z,1.50
2023-11-16T22:11:30.742Z,1.50
2023-11-16T22:16:34.645Z,1.30
2023-11-16T22:21:40.706Z,1.30
2023-11-16T22:26:44.626Z,1.20
2023-11-16T22:31:48.748Z,1.20
2023-11-16T22:36:54.013Z,1.30
2023-11-16T22:41:58.940Z,1.10
2023-11-16T22:47:02.840Z,1.10
2023-11-16T22:52:08.236Z,1.10
2023-11-16T22:57:12.397Z,1.10
2023-11-16T23:02:16.331Z,1.20
2023-11-16T23:07:24.147Z,1.20
2023-11-16T23:12:28.314Z,1.20
2023-11-16T23:17:32.176Z,1.00
2023-11-16T23:22:40.875Z,1.00
2023-11-16T23:27:47.953Z,0.90
2023-11-16T23:32:51.909Z,1.00
2023-11-16T23:37:57.560Z,1.10
2023-11-16T23:43:01.630Z,1.10
2023-11-16T23:48:06.040Z,1.30
2023-11-16T23:53:11.122Z,1.50
2023-11-16T23:58:14.850Z,1.80
